Time;durP1;ratioP1;P1;durP2;ratioP2;P2;SDS_P1;SDS_P2;PMS_P1;PMS_P2;Temp;Humidity;BMP_temperature;BMP_pressure;BME280_temperature;BME280_humidity;BME280_pressure;Samples;Min_cycle;Max_cycle;Signal;HPM_P1;HPM_P2
2022/01/09 00:00:08;;;;;;;1.20;1.10;;;;;;;16.39;61.89;98074.50;3098668;28;20595;-55
2022/01/09 00:01:40;;;;;;;2.22;0.98;;;;;;;16.40;61.90;98078.00;3101421;28;20053;-54
2022/01/09 00:03:12;;;;;;;1.17;0.80;;;;;;;16.39;61.75;98071.00;3100366;28;20042;-53
2022/01/09 00:04:44;;;;;;;1.38;1.27;;;;;;;16.37;61.90;98065.84;3102813;28;20050;-51
2022/01/09 00:06:18;;;;;;;0.80;0.80;;;;;;;16.36;61.71;98063.38;3099584;28;20061;-53
2022/01/09 00:07:50;;;;;;;1.65;0.90;;;;;;;16.35;61.78;98056.38;3097953;28;20049;-55
2022/01/09 00:09:22;;;;;;;0.65;0.60;;;;;;;16.33;61.87;98053.91;3098186;28;20046;-52
2022/01/09 00:10:54;;;;;;;1.05;0.95;;;;;;;16.32;61.83;98060.25;3099154;28;20054;-53
2022/01/09 00:12:26;;;;;;;2.85;1.02;;;;;;;16.31;61.91;98063.97;3097850;28;20054;-53
2022/01/09 00:13:58;;;;;;;1.00;0.80;;;;;;;16.30;61.81;98068.50;3097094;28;20097;-55
2022/01/09 00:15:30;;;;;;;0.98;0.90;;;;;;;16.27;61.88;98062.75;3098051;28;20575;-54
2022/01/09 00:17:02;;;;;;;1.92;0.90;;;;;;;16.26;61.83;98056.56;3094032;28;20054;-55
2022/01/09 00:18:33;;;;;;;1.02;0.75;;;;;;;16.25;61.94;98056.78;3101660;28;20053;-55
2022/01/09 00:20:08;;;;;;;1.40;0.90;;;;;;;16.24;61.85;98053.28;3101314;28;20046;-52
2022/01/09 00:21:42;;;;;;;1.00;0.70;;;;;;;16.21;62.13;98056.31;3097437;28;20057;-54
2022/01/09 00:23:13;;;;;;;2.13;1.30;;;;;;;16.20;61.96;98053.88;3096773;28;20113;-53
2022/01/09 00:24:44;;;;;;;1.10;1.00;;;;;;;16.18;62.10;98050.56;3096235;28;20062;-56
2022/01/09 00:26:16;;;;;;;0.90;0.90;;;;;;;16.17;61.98;98047.06;3098917;28;20073;-53
2022/01/09 00:27:50;;;;;;;1.35;0.85;;;;;;;16.15;61.92;98046.44;3098841;28;20058;-54
2022/01/09 00:29:22;;;;;;;0.80;0.70;;;;;;;16.14;62.11;98038.63;3099560;28;20045;-54
2022/01/09 00:30:54;;;;;;;0.90;0.80;;;;;;;16.13;62.08;98043.16;3098174;28;20061;-52
2022/01/09 00:32:26;;;;;;;0.90;0.70;;;;;;;16.12;62.02;98041.50;3096598;28;20411;-53
2022/01/09 00:33:57;;;;;;;1.52;0.73;;;;;;;16.10;62.07;98048.88;3097703;28;20058;-53
2022/01/09 00:35:30;;;;;;;1.75;1.00;;;;;;;16.07;62.10;98035.91;3096012;28;20448;-55
2022/01/09 00:37:02;;;;;;;1.58;1.02;;;;;;;16.06;62.26;98026.25;3095498;28;20634;-52
2022/01/09 00:38:34;;;;;;;0.80;0.70;;;;;;;16.07;62.14;98017.19;3098225;28;20064;-53
2022/01/09 00:40:09;;;;;;;1.23;1.13;;;;;;;16.04;62.13;98014.94;3099942;28;20054;-52
2022/01/09 00:41:41;;;;;;;0.80;0.60;;;;;;;16.00;62.23;97994.97;3096174;28;20054;-55
2022/01/09 00:43:13;;;;;;;1.55;1.45;;;;;;;15.99;62.19;97988.81;3095232;28;21448;-53
2022/01/09 00:44:44;;;;;;;1.58;0.90;;;;;;;15.98;62.27;97980.97;3095685;28;20587;-53
2022/01/09 00:46:16;;;;;;;0.80;0.80;;;;;;;15.96;62.22;97966.97;3096791;28;20057;-55
2022/01/09 00:47:48;;;;;;;1.17;0.90;;;;;;;15.95;62.21;97952.78;3097941;28;20058;-53
2022/01/09 00:49:19;;;;;;;1.17;0.80;;;;;;;15.93;62.22;97940.63;3096481;28;20046;-52
2022/01/09 00:50:50;;;;;;;1.00;0.90;;;;;;;15.92;62.24;97933.66;3098325;28;20045;-53
2022/01/09 00:52:23;;;;;;;2.65;1.50;;;;;;;15.91;62.19;97940.00;3101613;28;20053;-53
2022/01/09 00:53:55;;;;;;;0.98;0.70;;;;;;;15.91;62.26;97937.31;3096600;28;20547;-53
2022/01/09 00:55:26;;;;;;;1.00;0.80;;;;;;;15.89;62.32;97928.69;3094400;28;20444;-52
2022/01/09 00:56:58;;;;;;;0.95;0.80;;;;;;;15.88;62.14;97916.34;3095790;28;20061;-55
2022/01/09 00:58:30;;;;;;;1.42;0.90;;;;;;;15.82;62.35;97908.13;3099101;28;20042;-52
2022/01/09 01:00:04;;;;;;;0.82;0.68;;;;;;;15.82;62.32;97918.81;3095880;28;20065;-54
2022/01/09 01:01:35;;;;;;;0.80;0.80;;;;;;;15.81;62.25;97911.81;3095386;28;20058;-52
2022/01/09 01:03:07;;;;;;;1.00;0.82;;;;;;;15.78;62.40;97914.91;3095501;28;20042;-55
2022/01/09 01:04:40;;;;;;;1.45;0.95;;;;;;;15.77;62.30;97918.59;3101229;28;20061;-52
2022/01/09 01:06:13;;;;;;;1.65;0.95;;;;;;;15.77;62.22;97915.94;3097737;28;20834;-53
2022/01/09 01:07:46;;;;;;;1.55;1.27;;;;;;;15.73;62.39;97920.03;3095360;28;20045;-52
2022/01/09 01:09:20;;;;;;;1.13;0.90;;;;;;;15.72;62.45;97915.72;3098354;28;20496;-54
2022/01/09 01:10:52;;;;;;;1.35;0.80;;;;;;;15.72;62.59;97899.66;3087494;28;20054;-53
2022/01/09 01:12:25;;;;;;;1.95;0.80;;;;;;;15.71;62.34;97892.69;3097005;28;20075;-53
2022/01/09 01:13:57;;;;;;;0.75;0.75;;;;;;;15.69;62.69;97875.19;3098624;28;20145;-52
2022/01/09 01:15:29;;;;;;;1.73;1.20;;;;;;;15.68;62.53;97869.00;3094070;28;20042;-53
2022/01/09 01:17:01;;;;;;;1.48;0.93;;;;;;;15.67;62.42;97867.34;3096924;28;20062;-55
2022/01/09 01:18:33;;;;;;;1.10;0.93;;;;;;;15.63;62.49;97869.59;3100237;28;20086;-54
2022/01/09 01:20:06;;;;;;;2.38;1.55;;;;;;;15.63;62.38;97860.75;3094542;28;20089;-53
2022/01/09 01:21:38;;;;;;;1.08;0.75;;;;;;;15.63;62.66;97866.94;3098513;28;20104;-56
2022/01/09 01:23:11;;;;;;;1.17;1.05;;;;;;;15.61;62.53;97862.81;3097551;28;20541;-53
2022/01/09 01:24:44;;;;;;;2.08;1.20;;;;;;;15.59;62.54;97859.50;3097641;28;20049;-54
2022/01/09 01:26:16;;;;;;;1.15;1.05;;;;;;;15.57;62.50;97854.38;3093867;28;20066;-53
2022/01/09 01:27:48;;;;;;;1.30;0.90;;;;;;;15.57;62.42;97848.19;3095903;28;20041;-56
2022/01/09 01:29:20;;;;;;;0.80;0.80;;;;;;;15.55;62.56;97845.72;3091444;28;20448;-53
2022/01/09 01:30:52;;;;;;;0.70;0.60;;;;;;;15.51;62.54;97840.97;3099972;28;20125;-53
2022/01/09 01:32:24;;;;;;;0.82;0.77;;;;;;;15.51;62.81;97846.31;3095484;28;20050;-54
2022/01/09 01:33:56;;;;;;;1.23;1.00;;;;;;;15.50;62.74;97850.03;3100495;28;20049;-55
2022/01/09 01:35:28;;;;;;;1.27;0.90;;;;;;;15.49;62.72;97843.03;3093256;28;20053;-54
2022/01/09 01:37:00;;;;;;;1.17;0.85;;;;;;;15.46;62.68;97838.09;3098069;28;20061;-54
2022/01/09 01:38:34;;;;;;;0.68;0.68;;;;;;;15.43;62.61;97844.66;3097013;28;20057;-54
2022/01/09 01:40:07;;;;;;;0.90;0.80;;;;;;;15.44;62.67;97845.50;3097725;28;20058;-53
2022/01/09 01:41:39;;;;;;;0.88;0.80;;;;;;;15.42;62.82;97843.84;3092857;28;20096;-55
2022/01/09 01:43:12;;;;;;;0.90;0.90;;;;;;;15.41;62.63;97846.72;3096237;28;20107;-53
2022/01/09 01:44:46;;;;;;;1.00;0.75;;;;;;;15.41;62.67;97852.91;3084519;28;20177;-53
2022/01/09 01:46:17;;;;;;;1.08;0.90;;;;;;;15.39;62.70;97849.59;3095051;28;20068;-54
2022/01/09 01:47:49;;;;;;;2.20;1.02;;;;;;;15.37;62.99;97848.97;3095484;28;20050;-55
2022/01/09 01:49:21;;;;;;;1.40;1.08;;;;;;;15.37;62.86;97842.81;3097415;28;20060;-52
2022/01/09 01:50:53;;;;;;;1.40;0.88;;;;;;;15.37;62.61;97850.81;3093564;28;20046;-53
2022/01/09 01:52:30;;;;;;;1.13;0.98;;;;;;;15.36;62.83;97843.84;3093782;28;20140;-54
2022/01/09 01:54:04;;;;;;;1.92;1.08;;;;;;;15.36;62.66;97839.31;3099494;28;20129;-53
2022/01/09 01:55:38;;;;;;;2.00;0.90;;;;;;;15.35;62.79;97837.69;3094462;28;20073;-53
2022/01/09 01:57:10;;;;;;;1.10;1.00;;;;;;;15.36;62.89;97836.63;3095308;28;20065;-54
2022/01/09 01:58:42;;;;;;;0.77;0.75;;;;;;;15.35;62.73;97832.34;3096535;28;21122;-53
2022/01/09 02:00:17;;;;;;;1.08;0.98;;;;;;;15.34;62.90;97819.16;3096425;28;20038;-51
2022/01/09 02:01:49;;;;;;;1.17;0.80;;;;;;;15.34;62.91;97827.19;3095037;28;20112;-52
2022/01/09 02:03:21;;;;;;;1.48;0.90;;;;;;;15.32;62.75;97819.38;3091318;28;20108;-54
2022/01/09 02:04:54;;;;;;;1.38;0.98;;;;;;;15.32;62.86;97821.19;3097490;28;20100;-54
2022/01/09 02:06:26;;;;;;;1.67;1.27;;;;;;;15.32;62.93;97826.53;3095205;28;20104;-55
2022/01/09 02:08:00;;;;;;;1.83;1.30;;;;;;;15.31;62.88;97824.91;3095865;28;20046;-53
2022/01/09 02:09:34;;;;;;;0.60;0.60;;;;;;;15.29;62.96;97814.41;3094456;28;20062;-53
2022/01/09 02:11:06;;;;;;;1.33;1.15;;;;;;;15.29;62.71;97817.09;3098833;28;20046;-53
2022/01/09 02:12:40;;;;;;;0.95;0.68;;;;;;;15.26;62.85;97812.16;3093675;28;20057;-50
2022/01/09 02:14:12;;;;;;;0.68;0.65;;;;;;;15.27;62.80;97818.34;3093903;28;20042;-53
2022/01/09 02:15:46;;;;;;;0.73;0.47;;;;;;;15.26;63.03;97817.50;3100822;28;20062;-54
2022/01/09 02:17:19;;;;;;;1.58;1.10;;;;;;;15.25;62.79;97809.69;3094292;28;20088;-53
2022/01/09 02:18:51;;;;;;;1.73;1.08;;;;;;;15.26;62.73;97795.31;3089527;28;20043;-54
2022/01/09 02:20:23;;;;;;;1.17;0.77;;;;;;;15.24;62.73;97795.53;3094927;28;20664;-53
2022/01/09 02:21:56;;;;;;;1.25;0.98;;;;;;;15.24;62.77;97787.50;3095210;28;20046;-55
2022/01/09 02:23:28;;;;;;;1.50;0.90;;;;;;;15.22;62.87;97789.53;3095511;28;20058;-53
2022/01/09 02:25:01;;;;;;;0.98;0.63;;;;;;;15.21;62.89;97790.59;3094423;28;20054;-54
2022/01/09 02:26:32;;;;;;;0.68;0.68;;;;;;;15.18;62.81;97782.94;3095412;28;20117;-55
2022/01/09 02:28:06;;;;;;;1.05;0.75;;;;;;;15.16;63.07;97783.16;3095164;28;20137;-54
2022/01/09 02:29:37;;;;;;;1.65;1.00;;;;;;;15.16;62.84;97782.34;3097338;28;20054;-54
2022/01/09 02:31:10;;;;;;;1.00;0.60;;;;;;;15.16;63.04;97785.03;3096348;28;20042;-54
2022/01/09 02:32:42;;;;;;;1.38;0.98;;;;;;;15.15;62.96;97778.00;3094953;28;20118;-54
2022/01/09 02:34:13;;;;;;;1.20;1.10;;;;;;;15.14;62.88;97771.03;3099661;28;20050;-52
2022/01/09 02:35:51;;;;;;;1.95;1.10;;;;;;;15.13;63.05;97762.22;3091431;28;20109;-55
2022/01/09 02:37:23;;;;;;;1.20;1.00;;;;;;;15.12;62.93;97762.41;3097356;28;21045;-54
2022/01/09 02:38:55;;;;;;;1.40;1.30;;;;;;;15.11;62.97;97750.91;3094657;28;20042;-53
2022/01/09 02:40:27;;;;;;;1.25;1.15;;;;;;;15.11;62.85;97750.06;3099277;28;20739;-54
2022/01/09 02:41:59;;;;;;;1.25;0.95;;;;;;;15.10;62.86;97737.72;3093232;28;20046;-51
2022/01/09 02:43:31;;;;;;;1.17;1.00;;;;;;;15.08;62.80;97740.63;3096861;28;20942;-51
2022/01/09 02:45:04;;;;;;;1.10;1.00;;;;;;;15.07;63.02;97743.47;3091326;28;20050;-53
2022/01/09 02:46:46;;;;;;;1.63;1.02;;;;;;;15.06;63.07;97741.84;3098358;28;20049;-54
2022/01/09 02:48:18;;;;;;;2.22;1.02;;;;;;;15.06;63.06;97739.16;3097444;28;20555;-53
2022/01/09 02:49:53;;;;;;;0.98;0.98;;;;;;;15.06;62.90;97728.50;3097485;28;20041;-54
2022/01/09 02:51:26;;;;;;;1.35;0.90;;;;;;;15.08;62.98;97729.94;3097138;28;20096;-53
2022/01/09 02:52:59;;;;;;;1.17;1.10;;;;;;;15.10;62.96;97725.22;3095267;28;20112;-52
2022/01/09 02:56:21;;;;;;;1.00;0.82;;;;;;;15.14;62.88;97714.94;3093119;28;20129;-54
2022/01/09 02:57:54;;;;;;;0.85;0.70;;;;;;;15.15;62.95;97709.38;3096243;28;20052;-54
2022/01/09 02:59:26;;;;;;;2.53;1.00;;;;;;;15.18;62.87;97708.16;3096199;28;20049;-55
2022/01/09 03:00:58;;;;;;;1.25;0.95;;;;;;;15.18;62.66;97708.16;3094219;28;20054;-53
2022/01/09 03:02:30;;;;;;;0.90;0.70;;;;;;;15.18;62.83;97702.81;3096023;28;20043;-56
2022/01/09 03:04:02;;;;;;;1.70;0.45;;;;;;;15.18;62.78;97697.47;3097256;28;20045;-54
2022/01/09 03:05:34;;;;;;;0.95;0.80;;;;;;;15.19;62.73;97699.13;3093294;28;20046;-52
2022/01/09 03:07:07;;;;;;;0.98;0.85;;;;;;;15.19;62.78;97702.63;3097008;28;20486;-55
2022/01/09 03:08:39;;;;;;;1.25;0.98;;;;;;;15.19;62.74;97691.13;3096492;28;20713;-55
2022/01/09 03:10:13;;;;;;;1.23;1.02;;;;;;;15.20;62.91;97684.75;3094874;28;20108;-55
2022/01/09 03:11:47;;;;;;;2.53;0.98;;;;;;;15.19;62.63;97675.09;3095357;28;20042;-52
2022/01/09 03:13:19;;;;;;;1.25;1.00;;;;;;;15.18;62.86;97670.75;3090939;28;20122;-54
2022/01/09 03:14:50;;;;;;;0.77;0.77;;;;;;;15.19;62.67;97669.75;3095312;28;20046;-54
2022/01/09 03:16:22;;;;;;;1.35;1.08;;;;;;;15.19;62.81;97661.75;3098909;28;20115;-54
2022/01/09 03:17:54;;;;;;;0.93;0.60;;;;;;;15.18;62.59;97657.41;3098552;28;20049;-56
2022/01/09 03:19:26;;;;;;;1.77;0.80;;;;;;;15.19;62.66;97661.75;3098399;28;20559;-55
2022/01/09 03:20:58;;;;;;;1.27;1.00;;;;;;;15.19;62.65;97659.06;3098486;28;20046;-55
2022/01/09 03:22:30;;;;;;;1.00;0.65;;;;;;;15.18;62.80;97660.06;3097150;28;20129;-56
2022/01/09 03:24:02;;;;;;;1.23;0.93;;;;;;;15.16;62.87;97656.81;3093610;28;20047;-55
2022/01/09 03:25:34;;;;;;;1.75;1.05;;;;;;;15.15;62.73;97647.94;3098399;28;20500;-54
2022/01/09 03:27:06;;;;;;;1.05;0.93;;;;;;;15.15;62.67;97644.47;3099586;28;20046;-55
2022/01/09 03:28:38;;;;;;;1.35;1.10;;;;;;;15.15;62.81;97639.13;3090059;28;20055;-55
2022/01/09 03:30:11;;;;;;;2.10;1.13;;;;;;;15.14;62.76;97632.16;3092226;28;20647;-56
2022/01/09 03:31:43;;;;;;;1.17;0.80;;;;;;;15.13;62.82;97627.84;3091482;28;20057;-54
2022/01/09 03:33:15;;;;;;;1.35;1.08;;;;;;;15.13;62.89;97617.97;3095869;28;20056;-54
2022/01/09 03:34:46;;;;;;;1.10;0.93;;;;;;;15.13;62.81;97617.16;3095335;28;20089;-54
2022/01/09 03:36:17;;;;;;;0.88;0.80;;;;;;;15.13;62.74;97622.50;3096827;28;20524;-54
2022/01/09 03:37:52;;;;;;;1.38;1.00;;;;;;;15.12;62.90;97612.81;3097244;28;20436;-54
2022/01/09 03:39:22;;;;;;;1.20;1.10;;;;;;;15.10;62.76;97607.72;3096689;28;20546;-56
2022/01/09 03:40:54;;;;;;;0.80;0.68;;;;;;;15.11;62.88;97606.66;3086528;28;20042;-54
2022/01/09 03:42:26;;;;;;;0.70;0.70;;;;;;;15.08;62.80;97596.41;3098169;28;20050;-55
2022/01/09 03:43:58;;;;;;;1.10;0.77;;;;;;;15.09;62.77;97591.88;3097875;28;20049;-53
2022/01/09 03:45:30;;;;;;;0.77;0.77;;;;;;;15.08;62.84;97588.41;3098556;28;20120;-54
2022/01/09 03:47:02;;;;;;;0.95;0.90;;;;;;;15.08;62.84;97584.91;3096738;28;20061;-56
2022/01/09 03:48:34;;;;;;;1.58;1.25;;;;;;;15.06;62.83;97587.78;3097426;28;20046;-55
2022/01/09 03:50:08;;;;;;;1.20;0.68;;;;;;;15.05;62.89;97590.66;3093327;28;20097;-55
2022/01/09 03:51:43;;;;;;;0.57;0.45;;;;;;;15.05;62.99;97599.50;3099274;28;20050;-54
2022/01/09 03:53:16;;;;;;;1.48;0.95;;;;;;;15.04;62.93;97594.34;3097514;28;20046;-53
2022/01/09 03:54:47;;;;;;;1.80;0.82;;;;;;;15.02;62.84;97589.22;3090683;28;20046;-56
2022/01/09 03:56:19;;;;;;;1.03;0.80;;;;;;;15.03;62.77;97592.72;3093142;28;20103;-55
2022/01/09 03:57:51;;;;;;;1.10;1.00;;;;;;;15.03;62.75;97590.03;3094378;28;21007;-54
2022/01/09 03:59:23;;;;;;;0.90;0.75;;;;;;;15.01;62.88;97573.38;3095269;28;20863;-55
2022/01/09 04:00:55;;;;;;;1.55;1.10;;;;;;;15.00;62.76;97564.56;3094761;28;20054;-55
2022/01/09 04:02:27;;;;;;;0.88;0.75;;;;;;;14.97;63.01;97563.13;3097111;28;20050;-53
2022/01/09 04:03:59;;;;;;;1.92;1.13;;;;;;;14.99;62.78;97549.59;3097907;28;20058;-56
2022/01/09 04:05:31;;;;;;;1.25;0.98;;;;;;;15.00;62.74;97558.41;3096151;28;20046;-52
2022/01/09 04:07:03;;;;;;;1.15;0.90;;;;;;;14.99;62.98;97562.94;3100711;28;20054;-55
2022/01/09 04:08:37;;;;;;;1.90;1.02;;;;;;;14.98;62.78;97564.75;3095718;28;20108;-55
2022/01/09 04:10:10;;;;;;;1.58;0.80;;;;;;;14.96;62.86;97550.81;3101388;28;20505;-52
2022/01/09 04:11:42;;;;;;;0.88;0.80;;;;;;;14.95;62.81;97559.00;3096068;28;20061;-54
2022/01/09 04:13:15;;;;;;;1.25;0.88;;;;;;;14.95;62.79;97562.50;3096240;28;20097;-54
2022/01/09 04:14:49;;;;;;;1.60;1.00;;;;;;;14.94;62.96;97552.03;3098238;28;20068;-53
2022/01/09 04:16:21;;;;;;;1.48;0.90;;;;;;;14.93;62.92;97561.06;3096471;28;20073;-55
2022/01/09 04:17:54;;;;;;;1.45;1.17;;;;;;;14.90;62.83;97554.28;3097117;28;20531;-53
2022/01/09 04:19:26;;;;;;;1.05;0.80;;;;;;;14.90;62.90;97550.81;3099417;28;20065;-52
2022/01/09 04:20:58;;;;;;;1.42;0.77;;;;;;;14.89;62.93;97549.16;3098651;28;20053;-50
2022/01/09 04:22:29;;;;;;;1.50;1.13;;;;;;;14.89;62.93;97541.16;3100369;28;20104;-53
2022/01/09 04:24:02;;;;;;;1.37;0.90;;;;;;;14.88;62.95;97536.84;3098915;28;20979;-54
2022/01/09 04:25:34;;;;;;;1.67;1.15;;;;;;;14.86;63.02;97542.38;3095128;28;20285;-53
2022/01/09 04:27:06;;;;;;;0.80;0.70;;;;;;;14.86;62.88;97539.72;3097811;28;20054;-53
2022/01/09 04:28:38;;;;;;;1.23;0.90;;;;;;;14.84;63.09;97527.59;3101689;28;20046;-52
2022/01/09 04:30:11;;;;;;;1.08;0.98;;;;;;;14.82;63.03;97533.16;3097136;28;20065;-55
2022/01/09 04:31:43;;;;;;;1.40;0.85;;;;;;;14.81;63.12;97520.00;3099590;28;20108;-53
2022/01/09 04:33:15;;;;;;;1.27;0.75;;;;;;;14.81;62.95;97515.47;3099329;28;20100;-54
2022/01/09 04:34:47;;;;;;;1.15;0.90;;;;;;;14.82;62.96;97513.63;3096097;28;20520;-53
2022/01/09 04:36:19;;;;;;;1.10;0.85;;;;;;;14.80;62.99;97513.03;3096336;28;20656;-54
2022/01/09 04:37:52;;;;;;;1.58;1.00;;;;;;;14.79;63.14;97514.03;3096146;28;20046;-54
2022/01/09 04:39:26;;;;;;;2.05;1.00;;;;;;;14.78;63.06;97509.75;3100468;28;20491;-54
2022/01/09 04:40:58;;;;;;;1.45;0.80;;;;;;;14.77;63.05;97506.25;3098485;28;20136;-50
2022/01/09 04:42:37;;;;;;;1.42;0.80;;;;;;;14.75;63.03;97505.63;3096152;28;20046;-52
2022/01/09 04:44:09;;;;;;;1.23;0.73;;;;;;;14.74;63.19;97494.16;3096342;28;20516;-55
2022/01/09 04:45:41;;;;;;;2.42;1.20;;;;;;;14.72;63.03;97498.03;3094968;28;20046;-51
2022/01/09 04:47:16;;;;;;;0.93;0.82;;;;;;;14.73;63.11;97497.00;3094895;28;20054;-55
2022/01/09 04:48:49;;;;;;;1.23;0.73;;;;;;;14.71;62.89;97501.75;3096855;28;20058;-54
2022/01/09 04:50:25;;;;;;;1.10;1.00;;;;;;;14.69;63.19;97485.94;3099174;28;20058;-53
2022/01/09 04:51:58;;;;;;;1.20;0.88;;;;;;;14.69;63.17;97487.78;3094649;28;20049;-54
2022/01/09 04:53:29;;;;;;;1.52;0.93;;;;;;;14.68;63.20;97494.97;3096196;28;20385;-53
2022/01/09 04:55:02;;;;;;;1.38;0.82;;;;;;;14.67;63.09;97485.31;3099315;28;20056;-54
2022/01/09 04:56:34;;;;;;;1.05;0.85;;;;;;;14.67;63.07;97490.66;3099002;28;20078;-52
2022/01/09 04:58:06;;;;;;;1.35;1.00;;;;;;;14.65;63.07;97490.03;3099869;28;20120;-53
2022/01/09 04:59:37;;;;;;;1.02;0.90;;;;;;;14.65;63.26;97481.19;3091771;28;20049;-53
2022/01/09 05:01:09;;;;;;;1.27;0.73;;;;;;;14.63;63.14;97480.59;3092139;28;20889;-52
2022/01/09 05:02:41;;;;;;;1.58;0.88;;;;;;;14.62;63.09;97473.59;3094679;28;20539;-51
2022/01/09 05:04:13;;;;;;;1.58;0.93;;;;;;;14.61;63.11;97467.47;3097313;28;20058;-53
2022/01/09 05:05:45;;;;;;;1.80;1.50;;;;;;;14.62;63.24;97457.59;3096658;28;20050;-50
2022/01/09 05:07:17;;;;;;;1.67;1.13;;;;;;;14.63;63.21;97464.59;3098457;28;20057;-53
2022/01/09 05:08:49;;;;;;;0.90;0.90;;;;;;;14.63;63.13;97449.41;3095177;28;20060;-53
2022/01/09 05:10:22;;;;;;;1.55;1.10;;;;;;;14.69;63.22;97453.91;3099697;28;20042;-52
2022/01/09 05:11:54;;;;;;;1.05;0.95;;;;;;;14.75;63.13;97447.72;3092105;28;20046;-54
2022/01/09 05:13:26;;;;;;;1.45;1.10;;;;;;;14.83;63.16;97449.38;3100427;28;20053;-51
2022/01/09 05:14:57;;;;;;;1.08;0.85;;;;;;;14.91;62.83;97453.69;3095153;28;20544;-51
2022/01/09 05:16:29;;;;;;;1.50;1.02;;;;;;;14.97;62.69;97456.31;3097272;28;20062;-53
2022/01/09 05:18:04;;;;;;;1.00;0.90;;;;;;;15.05;62.94;97446.47;3088976;28;20050;-52
2022/01/09 05:19:36;;;;;;;0.73;0.52;;;;;;;15.11;62.70;97438.41;3099082;28;20093;-53
2022/01/09 05:21:08;;;;;;;1.02;0.70;;;;;;;15.17;62.72;97434.91;3094653;28;20491;-53
2022/01/09 05:22:40;;;;;;;1.20;0.80;;;;;;;15.26;62.50;97445.34;3096760;28;20050;-52
2022/01/09 05:24:12;;;;;;;1.33;0.80;;;;;;;15.31;62.47;97437.53;3096842;28;20887;-53
2022/01/09 05:25:45;;;;;;;1.00;0.90;;;;;;;15.36;62.45;97433.19;3098137;28;20053;-52
2022/01/09 05:27:16;;;;;;;1.90;0.95;;;;;;;15.42;62.30;97432.34;3094027;28;20054;-54
2022/01/09 05:28:48;;;;;;;1.42;1.10;;;;;;;15.48;62.24;97432.53;3098240;28;20070;-52
2022/01/09 05:30:20;;;;;;;1.30;1.10;;;;;;;15.53;62.20;97427.38;3099227;28;20049;-52
2022/01/09 05:31:51;;;;;;;1.02;0.90;;;;;;;15.59;62.21;97429.19;3093774;28;20054;-51
2022/01/09 05:33:23;;;;;;;1.00;0.80;;;;;;;15.64;62.29;97418.69;3092647;28;20100;-53
2022/01/09 05:34:54;;;;;;;;;;;;;;;15.69;62.12;97418.91;3089965;28;20173;-51
2022/01/09 05:36:26;;;;;;;0.50;0.50;;;;;;;15.74;62.02;97413.72;3095874;28;19932;-54
2022/01/09 05:37:58;;;;;;;0.90;0.77;;;;;;;15.78;62.03;97409.59;3093411;28;20052;-52
2022/01/09 05:39:30;;;;;;;1.00;0.73;;;;;;;15.80;61.92;97407.53;3098165;28;20058;-54
2022/01/09 05:41:03;;;;;;;1.42;1.02;;;;;;;15.84;61.75;97410.56;3096188;28;20042;-53
2022/01/09 05:42:35;;;;;;;1.75;0.90;;;;;;;15.88;61.86;97416.31;3095978;28;20054;-54
2022/01/09 05:44:07;;;;;;;1.05;0.70;;;;;;;15.90;61.78;97401.69;3095726;28;20057;-55
2022/01/09 05:45:39;;;;;;;1.75;1.08;;;;;;;15.93;61.69;97397.75;3099137;28;20053;-54
2022/01/09 05:47:10;;;;;;;1.52;0.93;;;;;;;15.96;61.68;97390.13;3094468;28;20065;-52
2022/01/09 05:48:42;;;;;;;1.25;0.98;;;;;;;15.99;61.59;97399.56;3098123;28;20081;-52
2022/01/09 05:50:15;;;;;;;1.15;0.95;;;;;;;16.02;61.69;97393.81;3098344;28;20120;-57
2022/01/09 05:51:47;;;;;;;1.00;0.73;;;;;;;16.04;61.59;97397.06;3099756;28;20407;-53
2022/01/09 05:53:18;;;;;;;1.17;1.05;;;;;;;16.07;61.43;97399.31;3097613;28;20092;-54
2022/01/09 05:54:50;;;;;;;1.10;0.98;;;;;;;16.08;61.46;97384.91;3094334;28;20042;-55
2022/01/09 05:56:24;;;;;;;0.90;0.70;;;;;;;16.11;61.37;97389.81;3096843;28;20065;-53
2022/01/09 05:57:55;;;;;;;1.38;1.00;;;;;;;16.13;61.47;97389.59;3098267;28;20054;-52
2022/01/09 05:59:27;;;;;;;2.20;1.00;;;;;;;16.15;61.46;97387.53;3098555;28;20049;-54
2022/01/09 06:00:59;;;;;;;1.35;1.15;;;;;;;16.17;61.51;97378.25;3094992;28;20042;-53
2022/01/09 06:02:31;;;;;;;0.70;0.70;;;;;;;16.18;61.41;97379.88;3092272;28;20463;-55
2022/01/09 06:04:03;;;;;;;1.00;0.70;;;;;;;16.21;61.37;97375.94;3093962;28;20046;-54
2022/01/09 06:05:35;;;;;;;0.60;0.50;;;;;;;16.24;61.30;97378.19;3097994;28;20056;-56
2022/01/09 06:07:07;;;;;;;0.85;0.55;;;;;;;16.27;61.36;97375.09;3099107;28;20045;-51
2022/01/09 06:08:39;;;;;;;0.68;0.68;;;;;;;16.29;61.30;97381.84;3096332;28;20057;-53
2022/01/09 06:10:12;;;;;;;0.73;0.73;;;;;;;16.34;61.24;97385.72;3098447;28;20076;-54
2022/01/09 06:11:45;;;;;;;1.00;0.70;;;;;;;16.35;61.11;97384.69;3098173;28;20516;-54
2022/01/09 06:13:17;;;;;;;0.98;0.70;;;;;;;16.37;60.93;97386.09;3095523;28;20538;-54
2022/01/09 06:14:49;;;;;;;0.80;0.80;;;;;;;16.39;61.17;97388.56;3093655;28;20042;-54
2022/01/09 06:16:22;;;;;;;0.93;0.73;;;;;;;16.40;61.02;97379.50;3094662;28;20065;-55
2022/01/09 06:17:54;;;;;;;0.60;0.52;;;;;;;16.42;61.08;97388.13;3098064;28;20049;-54
2022/01/09 06:19:26;;;;;;;1.40;0.80;;;;;;;16.42;60.96;97388.13;3099463;28;20045;-55
2022/01/09 06:20:58;;;;;;;0.70;0.70;;;;;;;16.44;61.05;97381.53;3097773;28;20042;-55
2022/01/09 06:22:30;;;;;;;0.57;0.57;;;;;;;16.45;61.03;97376.97;3097072;28;20045;-54
2022/01/09 06:24:01;;;;;;;1.27;1.17;;;;;;;16.47;60.93;97390.97;3094893;28;20049;-53
2022/01/09 06:25:33;;;;;;;1.30;1.08;;;;;;;16.47;60.99;97377.59;3095450;28;20058;-54
2022/01/09 06:27:07;;;;;;;0.80;0.80;;;;;;;16.47;60.74;97370.38;3094918;28;20096;-55
2022/01/09 06:28:39;;;;;;;1.40;0.88;;;;;;;16.47;60.89;97365.03;3097384;28;20061;-53
2022/01/09 06:30:12;;;;;;;1.02;0.93;;;;;;;16.48;60.82;97358.63;3096028;28;20058;-51
2022/01/09 06:31:45;;;;;;;0.75;0.70;;;;;;;16.48;60.82;97355.13;3094960;28;20046;-52
2022/01/09 06:33:18;;;;;;;0.82;0.50;;;;;;;16.49;61.01;97359.44;3090948;28;20042;-52
2022/01/09 06:34:49;;;;;;;0.73;0.63;;;;;;;16.49;60.86;97354.06;3088663;28;20605;-54
2022/01/09 06:36:22;;;;;;;1.27;1.15;;;;;;;16.49;60.84;97357.59;3097753;28;20050;-54
2022/01/09 06:37:53;;;;;;;0.68;0.60;;;;;;;16.49;60.86;97359.44;3097103;28;20052;-55
2022/01/09 06:39:25;;;;;;;1.10;0.70;;;;;;;16.48;61.00;97357.81;3093692;28;20049;-54
2022/01/09 06:40:58;;;;;;;1.52;0.75;;;;;;;16.47;60.88;97354.31;3098859;28;20053;-56
2022/01/09 06:42:31;;;;;;;0.50;0.50;;;;;;;16.47;60.99;97364.22;3098469;28;20049;-53
2022/01/09 06:44:03;;;;;;;0.70;0.70;;;;;;;16.47;60.91;97356.19;3092371;28;20436;-51
2022/01/09 06:45:35;;;;;;;0.85;0.70;;;;;;;16.46;60.93;97363.38;3096131;28;20508;-54
2022/01/09 06:47:07;;;;;;;1.02;0.60;;;;;;;16.46;60.92;97357.19;3098847;28;20049;-54
2022/01/09 06:48:39;;;;;;;0.65;0.63;;;;;;;16.46;60.93;97358.00;3095671;28;20046;-55
2022/01/09 06:50:12;;;;;;;1.08;0.95;;;;;;;16.45;60.90;97344.88;3087028;28;20112;-55
2022/01/09 06:51:44;;;;;;;1.30;0.80;;;;;;;16.46;60.99;97351.84;3091876;28;20349;-54
2022/01/09 06:53:15;;;;;;;1.05;0.80;;;;;;;16.44;60.82;97352.09;3094575;28;20109;-56
2022/01/09 06:54:47;;;;;;;1.00;0.80;;;;;;;16.42;60.85;97351.47;3096615;28;20486;-56
2022/01/09 06:56:19;;;;;;;1.67;0.88;;;;;;;16.43;60.89;97352.28;3094785;28;20077;-56
2022/01/09 06:57:53;;;;;;;1.25;0.93;;;;;;;16.40;60.99;97353.53;3092166;28;20046;-56
2022/01/09 06:59:25;;;;;;;1.15;0.63;;;;;;;16.41;61.00;97347.19;3096026;28;20046;-54
2022/01/09 07:00:57;;;;;;;1.13;0.70;;;;;;;16.38;60.94;97336.91;3095853;28;20046;-57
2022/01/09 07:02:29;;;;;;;0.60;0.50;;;;;;;16.39;60.82;97340.41;3095036;28;20124;-56
2022/01/09 07:04:01;;;;;;;0.75;0.65;;;;;;;16.39;60.88;97338.53;3102168;28;20624;-54
2022/01/09 07:05:33;;;;;;;0.57;0.57;;;;;;;16.39;60.76;97338.53;3093951;28;20112;-54
2022/01/09 07:07:06;;;;;;;1.38;0.90;;;;;;;16.39;60.77;97345.75;3094844;28;20046;-54
2022/01/09 07:08:37;;;;;;;0.80;0.50;;;;;;;16.38;60.74;97336.91;3097449;28;20050;-54
2022/01/09 07:10:11;;;;;;;0.65;0.65;;;;;;;16.38;60.80;97330.72;3095539;28;20100;-56
2022/01/09 07:11:43;;;;;;;0.70;0.55;;;;;;;16.38;60.99;97315.50;3096602;28;20050;-53
2022/01/09 07:13:16;;;;;;;0.65;0.55;;;;;;;16.39;60.89;97309.09;3097082;28;20058;-53
2022/01/09 07:14:47;;;;;;;1.80;1.00;;;;;;;16.38;60.95;97301.28;3090098;28;20090;-56
2022/01/09 07:16:19;;;;;;;0.73;0.70;;;;;;;16.39;60.98;97294.91;3094159;28;20050;-55